Terminal Aerodrome Forecast
Issued by NWS

Home | Current Version | Previous Version | Graphics & Text | Print | Product List | Glossary On
Versions: 1 2 3 4 5 6 7 8 9 10 11 12 13 14
000
FTUS42 KMHX 212323
TAFOAJ
TAF
KOAJ 212323Z 2200/2224 VRB04KT P6SM FEW250
     FM220200 00000KT P6SM FEW250
     FM220900 00000KT 3SM BR FEW006 FEW250
     FM221200 00000KT P6SM FEW250
     FM222200 19006KT P6SM FEW060
      AMD LTD TO CLD VIS AND WIND=

USA.gov is the U.S. government's official web portal to all federal, state and local government web resources and services.